sensor_id;sensor_type;location;lat;lon;timestamp;P1;durP1;ratioP1;P2;durP2;ratioP2
60847;SDS011;46681;47.696;9.140;2023-05-13T00:01:46;2.20;;;2.10;;
60847;SDS011;46681;47.696;9.140;2023-05-13T00:04:13;2.60;;;2.40;;
60847;SDS011;46681;47.696;9.140;2023-05-13T00:06:39;2.33;;;2.20;;
60847;SDS011;46681;47.696;9.140;2023-05-13T00:09:04;2.20;;;2.00;;
60847;SDS011;46681;47.696;9.140;2023-05-13T00:11:30;2.17;;;2.07;;
60847;SDS011;46681;47.696;9.140;2023-05-13T00:13:57;2.60;;;2.40;;
60847;SDS011;46681;47.696;9.140;2023-05-13T00:16:23;1.80;;;1.70;;
60847;SDS011;46681;47.696;9.140;2023-05-13T00:18:49;2.53;;;2.33;;
60847;SDS011;46681;47.696;9.140;2023-05-13T00:21:15;2.23;;;2.13;;
60847;SDS011;46681;47.696;9.140;2023-05-13T00:23:45;1.87;;;1.77;;
60847;SDS011;46681;47.696;9.140;2023-05-13T00:26:11;2.03;;;1.93;;
60847;SDS011;46681;47.696;9.140;2023-05-13T00:28:36;2.00;;;1.90;;
60847;SDS011;46681;47.696;9.140;2023-05-13T00:31:04;2.10;;;2.00;;
60847;SDS011;46681;47.696;9.140;2023-05-13T00:33:31;1.90;;;1.80;;
60847;SDS011;46681;47.696;9.140;2023-05-13T00:35:57;2.10;;;2.00;;
60847;SDS011;46681;47.696;9.140;2023-05-13T00:38:22;1.90;;;1.80;;
60847;SDS011;46681;47.696;9.140;2023-05-13T00:40:48;1.97;;;1.77;;
60847;SDS011;46681;47.696;9.140;2023-05-13T00:43:16;2.27;;;2.10;;
60847;SDS011;46681;47.696;9.140;2023-05-13T00:45:42;2.30;;;2.20;;
60847;SDS011;46681;47.696;9.140;2023-05-13T00:48:10;1.90;;;1.80;;
60847;SDS011;46681;47.696;9.140;2023-05-13T00:50:36;1.93;;;1.83;;
60847;SDS011;46681;47.696;9.140;2023-05-13T00:53:05;1.80;;;1.70;;
60847;SDS011;46681;47.696;9.140;2023-05-13T00:55:30;2.10;;;2.00;;
60847;SDS011;46681;47.696;9.140;2023-05-13T00:57:57;2.30;;;2.10;;
60847;SDS011;46681;47.696;9.140;2023-05-13T01:00:22;1.90;;;1.80;;
60847;SDS011;46681;47.696;9.140;2023-05-13T01:02:59;2.07;;;1.90;;
60847;SDS011;46681;47.696;9.140;2023-05-13T01:06:13;2.23;;;2.10;;
60847;SDS011;46681;47.696;9.140;2023-05-13T01:08:57;2.10;;;2.00;;
60847;SDS011;46681;47.696;9.140;2023-05-13T01:11:33;2.33;;;2.23;;
60847;SDS011;46681;47.696;9.140;2023-05-13T01:14:10;2.03;;;1.93;;
60847;SDS011;46681;47.696;9.140;2023-05-13T01:16:45;2.63;;;2.43;;
60847;SDS011;46681;47.696;9.140;2023-05-13T01:19:24;2.20;;;2.10;;
60847;SDS011;46681;47.696;9.140;2023-05-13T01:21:59;2.50;;;1.90;;
60847;SDS011;46681;47.696;9.140;2023-05-13T01:24:25;2.27;;;2.17;;
60847;SDS011;46681;47.696;9.140;2023-05-13T01:26:50;2.47;;;2.07;;
60847;SDS011;46681;47.696;9.140;2023-05-13T01:29:17;2.27;;;2.17;;
60847;SDS011;46681;47.696;9.140;2023-05-13T01:31:42;2.00;;;1.90;;
60847;SDS011;46681;47.696;9.140;2023-05-13T01:34:11;2.23;;;2.13;;
60847;SDS011;46681;47.696;9.140;2023-05-13T01:36:39;1.87;;;1.77;;
60847;SDS011;46681;47.696;9.140;2023-05-13T01:39:04;2.20;;;2.10;;
60847;SDS011;46681;47.696;9.140;2023-05-13T01:41:31;2.30;;;2.20;;
60847;SDS011;46681;47.696;9.140;2023-05-13T01:43:57;2.50;;;2.30;;
60847;SDS011;46681;47.696;9.140;2023-05-13T01:46:22;2.30;;;2.20;;
60847;SDS011;46681;47.696;9.140;2023-05-13T01:48:48;2.13;;;1.90;;
60847;SDS011;46681;47.696;9.140;2023-05-13T01:51:14;2.20;;;2.10;;
60847;SDS011;46681;47.696;9.140;2023-05-13T01:53:39;2.20;;;2.10;;
60847;SDS011;46681;47.696;9.140;2023-05-13T01:56:07;2.47;;;2.30;;
60847;SDS011;46681;47.696;9.140;2023-05-13T01:58:35;2.77;;;2.20;;
60847;SDS011;46681;47.696;9.140;2023-05-13T02:01:01;2.50;;;2.00;;
60847;SDS011;46681;47.696;9.140;2023-05-13T02:03:26;2.00;;;1.90;;
60847;SDS011;46681;47.696;9.140;2023-05-13T02:05:52;2.30;;;2.20;;
60847;SDS011;46681;47.696;9.140;2023-05-13T02:08:17;2.23;;;2.13;;
60847;SDS011;46681;47.696;9.140;2023-05-13T02:10:53;2.20;;;2.10;;
60847;SDS011;46681;47.696;9.140;2023-05-13T02:13:19;2.20;;;2.10;;
60847;SDS011;46681;47.696;9.140;2023-05-13T02:15:45;2.27;;;2.17;;
60847;SDS011;46681;47.696;9.140;2023-05-13T02:18:11;2.13;;;1.97;;
60847;SDS011;46681;47.696;9.140;2023-05-13T02:20:36;2.20;;;2.10;;
60847;SDS011;46681;47.696;9.140;2023-05-13T02:23:02;2.00;;;1.90;;
60847;SDS011;46681;47.696;9.140;2023-05-13T02:25:27;2.20;;;2.10;;
60847;SDS011;46681;47.696;9.140;2023-05-13T02:27:53;2.27;;;2.10;;
60847;SDS011;46681;47.696;9.140;2023-05-13T02:30:18;2.40;;;2.30;;
60847;SDS011;46681;47.696;9.140;2023-05-13T02:32:44;2.63;;;2.43;;
60847;SDS011;46681;47.696;9.140;2023-05-13T02:35:10;2.60;;;2.40;;
60847;SDS011;46681;47.696;9.140;2023-05-13T02:37:35;2.30;;;2.20;;
60847;SDS011;46681;47.696;9.140;2023-05-13T02:40:00;2.27;;;2.17;;
60847;SDS011;46681;47.696;9.140;2023-05-13T02:42:28;2.40;;;2.30;;
60847;SDS011;46681;47.696;9.140;2023-05-13T02:44:53;2.13;;;1.93;;
60847;SDS011;46681;47.696;9.140;2023-05-13T02:47:19;2.50;;;2.30;;
60847;SDS011;46681;47.696;9.140;2023-05-13T02:49:44;1.87;;;1.77;;
60847;SDS011;46681;47.696;9.140;2023-05-13T02:52:10;2.60;;;2.40;;
60847;SDS011;46681;47.696;9.140;2023-05-13T02:54:35;2.63;;;2.10;;
60847;SDS011;46681;47.696;9.140;2023-05-13T02:57:01;2.60;;;2.40;;
60847;SDS011;46681;47.696;9.140;2023-05-13T02:59:26;2.67;;;2.47;;
60847;SDS011;46681;47.696;9.140;2023-05-13T03:01:52;2.50;;;2.30;;
60847;SDS011;46681;47.696;9.140;2023-05-13T03:04:18;2.33;;;2.13;;
60847;SDS011;46681;47.696;9.140;2023-05-13T03:06:44;3.10;;;2.37;;
60847;SDS011;46681;47.696;9.140;2023-05-13T03:09:10;2.73;;;2.53;;
60847;SDS011;46681;47.696;9.140;2023-05-13T03:11:35;2.17;;;2.07;;
60847;SDS011;46681;47.696;9.140;2023-05-13T03:14:01;2.63;;;2.30;;
60847;SDS011;46681;47.696;9.140;2023-05-13T03:16:29;2.70;;;2.50;;
60847;SDS011;46681;47.696;9.140;2023-05-13T03:18:55;2.60;;;2.40;;
60847;SDS011;46681;47.696;9.140;2023-05-13T03:21:22;2.67;;;2.47;;
60847;SDS011;46681;47.696;9.140;2023-05-13T03:23:49;2.20;;;2.10;;
60847;SDS011;46681;47.696;9.140;2023-05-13T03:26:15;2.93;;;2.70;;
60847;SDS011;46681;47.696;9.140;2023-05-13T03:28:41;2.47;;;2.27;;
60847;SDS011;46681;47.696;9.140;2023-05-13T03:31:07;2.67;;;2.57;;
60847;SDS011;46681;47.696;9.140;2023-05-13T03:33:32;2.50;;;2.30;;
60847;SDS011;46681;47.696;9.140;2023-05-13T03:36:00;2.90;;;2.70;;
60847;SDS011;46681;47.696;9.140;2023-05-13T03:38:26;3.13;;;2.63;;
60847;SDS011;46681;47.696;9.140;2023-05-13T03:40:52;3.30;;;2.37;;
60847;SDS011;46681;47.696;9.140;2023-05-13T03:43:17;2.70;;;2.50;;
60847;SDS011;46681;47.696;9.140;2023-05-13T03:45:43;2.70;;;2.47;;
60847;SDS011;46681;47.696;9.140;2023-05-13T03:48:08;2.87;;;2.63;;
60847;SDS011;46681;47.696;9.140;2023-05-13T03:50:35;2.80;;;2.60;;
60847;SDS011;46681;47.696;9.140;2023-05-13T03:53:00;2.77;;;2.60;;
60847;SDS011;46681;47.696;9.140;2023-05-13T03:55:34;2.57;;;2.40;;
60847;SDS011;46681;47.696;9.140;2023-05-13T03:58:09;2.70;;;2.50;;
60847;SDS011;46681;47.696;9.140;2023-05-13T04:00:35;2.70;;;2.50;;
60847;SDS011;46681;47.696;9.140;2023-05-13T04:03:01;3.23;;;3.00;;
60847;SDS011;46681;47.696;9.140;2023-05-13T04:05:33;3.07;;;2.87;;
60847;SDS011;46681;47.696;9.140;2023-05-13T04:07:59;3.60;;;2.80;;
60847;SDS011;46681;47.696;9.140;2023-05-13T04:10:26;2.60;;;2.40;;
60847;SDS011;46681;47.696;9.140;2023-05-13T04:12:51;2.67;;;2.47;;
60847;SDS011;46681;47.696;9.140;2023-05-13T04:15:17;2.93;;;2.73;;
60847;SDS011;46681;47.696;9.140;2023-05-13T04:17:44;3.30;;;2.97;;
60847;SDS011;46681;47.696;9.140;2023-05-13T04:20:09;4.50;;;3.07;;
60847;SDS011;46681;47.696;9.140;2023-05-13T04:22:35;2.87;;;2.67;;
60847;SDS011;46681;47.696;9.140;2023-05-13T04:25:01;2.40;;;2.20;;
60847;SDS011;46681;47.696;9.140;2023-05-13T04:27:27;3.93;;;3.20;;
60847;SDS011;46681;47.696;9.140;2023-05-13T04:29:55;3.33;;;2.50;;
60847;SDS011;46681;47.696;9.140;2023-05-13T04:32:21;4.27;;;2.67;;
60847;SDS011;46681;47.696;9.140;2023-05-13T04:34:47;3.37;;;2.77;;
60847;SDS011;46681;47.696;9.140;2023-05-13T04:37:19;4.33;;;3.27;;
60847;SDS011;46681;47.696;9.140;2023-05-13T04:39:50;5.67;;;3.40;;
60847;SDS011;46681;47.696;9.140;2023-05-13T04:42:17;4.00;;;3.57;;
60847;SDS011;46681;47.696;9.140;2023-05-13T04:44:42;9.10;;;3.77;;
60847;SDS011;46681;47.696;9.140;2023-05-13T04:47:08;7.37;;;3.90;;
60847;SDS011;46681;47.696;9.140;2023-05-13T04:49:34;6.10;;;3.90;;
60847;SDS011;46681;47.696;9.140;2023-05-13T04:52:00;4.47;;;3.70;;
60847;SDS011;46681;47.696;9.140;2023-05-13T04:54:27;6.00;;;4.10;;
60847;SDS011;46681;47.696;9.140;2023-05-13T04:56:56;7.07;;;3.43;;
60847;SDS011;46681;47.696;9.140;2023-05-13T04:59:22;5.63;;;3.67;;
60847;SDS011;46681;47.696;9.140;2023-05-13T05:01:47;5.47;;;3.40;;
60847;SDS011;46681;47.696;9.140;2023-05-13T05:04:13;4.50;;;3.37;;
60847;SDS011;46681;47.696;9.140;2023-05-13T05:06:41;4.70;;;3.57;;
60847;SDS011;46681;47.696;9.140;2023-05-13T05:09:06;7.53;;;3.30;;
60847;SDS011;46681;47.696;9.140;2023-05-13T05:11:33;4.67;;;3.17;;
60847;SDS011;46681;47.696;9.140;2023-05-13T05:13:59;6.07;;;3.77;;
60847;SDS011;46681;47.696;9.140;2023-05-13T05:16:31;4.37;;;3.50;;
60847;SDS011;46681;47.696;9.140;2023-05-13T05:19:00;5.23;;;3.17;;
60847;SDS011;46681;47.696;9.140;2023-05-13T05:21:26;4.67;;;3.97;;
60847;SDS011;46681;47.696;9.140;2023-05-13T05:23:56;3.67;;;3.37;;
60847;SDS011;46681;47.696;9.140;2023-05-13T05:26:22;4.50;;;3.43;;
60847;SDS011;46681;47.696;9.140;2023-05-13T05:28:47;11.97;;;4.83;;
60847;SDS011;46681;47.696;9.140;2023-05-13T05:31:13;3.80;;;3.13;;
60847;SDS011;46681;47.696;9.140;2023-05-13T05:33:39;4.10;;;3.60;;
60847;SDS011;46681;47.696;9.140;2023-05-13T05:36:05;4.33;;;3.93;;
60847;SDS011;46681;47.696;9.140;2023-05-13T05:38:32;4.77;;;4.37;;
60847;SDS011;46681;47.696;9.140;2023-05-13T05:41:00;4.03;;;3.73;;
60847;SDS011;46681;47.696;9.140;2023-05-13T05:43:27;4.43;;;4.00;;
60847;SDS011;46681;47.696;9.140;2023-05-13T05:45:54;6.97;;;4.10;;
60847;SDS011;46681;47.696;9.140;2023-05-13T05:48:20;7.63;;;3.90;;
60847;SDS011;46681;47.696;9.140;2023-05-13T05:50:46;5.03;;;3.70;;
60847;SDS011;46681;47.696;9.140;2023-05-13T05:53:17;5.70;;;3.80;;
60847;SDS011;46681;47.696;9.140;2023-05-13T05:55:43;6.30;;;3.80;;
60847;SDS011;46681;47.696;9.140;2023-05-13T05:58:09;8.87;;;3.90;;
60847;SDS011;46681;47.696;9.140;2023-05-13T06:00:41;6.57;;;4.40;;
60847;SDS011;46681;47.696;9.140;2023-05-13T06:03:07;23.67;;;8.50;;
60847;SDS011;46681;47.696;9.140;2023-05-13T06:05:35;13.33;;;5.23;;
60847;SDS011;46681;47.696;9.140;2023-05-13T06:08:00;21.43;;;5.90;;
60847;SDS011;46681;47.696;9.140;2023-05-13T06:10:29;14.40;;;5.40;;
60847;SDS011;46681;47.696;9.140;2023-05-13T06:12:56;21.07;;;5.23;;
60847;SDS011;46681;47.696;9.140;2023-05-13T06:15:24;12.60;;;4.73;;
60847;SDS011;46681;47.696;9.140;2023-05-13T06:17:55;7.30;;;3.80;;
60847;SDS011;46681;47.696;9.140;2023-05-13T06:20:28;6.67;;;3.70;;
60847;SDS011;46681;47.696;9.140;2023-05-13T06:22:59;8.83;;;3.67;;
60847;SDS011;46681;47.696;9.140;2023-05-13T06:25:26;5.27;;;3.57;;
60847;SDS011;46681;47.696;9.140;2023-05-13T06:27:54;4.43;;;3.97;;
60847;SDS011;46681;47.696;9.140;2023-05-13T06:30:20;7.37;;;4.37;;
60847;SDS011;46681;47.696;9.140;2023-05-13T06:32:53;4.23;;;3.83;;
60847;SDS011;46681;47.696;9.140;2023-05-13T06:35:24;4.83;;;4.40;;
60847;SDS011;46681;47.696;9.140;2023-05-13T06:37:50;4.73;;;4.23;;
60847;SDS011;46681;47.696;9.140;2023-05-13T06:40:23;6.70;;;3.60;;
60847;SDS011;46681;47.696;9.140;2023-05-13T06:42:54;9.73;;;4.23;;
60847;SDS011;46681;47.696;9.140;2023-05-13T06:45:20;5.13;;;4.63;;
60847;SDS011;46681;47.696;9.140;2023-05-13T06:48:02;11.20;;;4.93;;
60847;SDS011;46681;47.696;9.140;2023-05-13T06:50:28;7.30;;;4.23;;
60847;SDS011;46681;47.696;9.140;2023-05-13T06:52:57;6.70;;;4.60;;
60847;SDS011;46681;47.696;9.140;2023-05-13T06:55:35;5.83;;;4.37;;
60847;SDS011;46681;47.696;9.140;2023-05-13T06:58:16;12.13;;;4.00;;
60847;SDS011;46681;47.696;9.140;2023-05-13T07:00:42;6.83;;;4.00;;
60847;SDS011;46681;47.696;9.140;2023-05-13T07:03:08;5.50;;;3.90;;
60847;SDS011;46681;47.696;9.140;2023-05-13T07:05:37;4.37;;;3.90;;
60847;SDS011;46681;47.696;9.140;2023-05-13T07:08:05;5.80;;;3.43;;
60847;SDS011;46681;47.696;9.140;2023-05-13T07:10:32;8.77;;;3.57;;
60847;SDS011;46681;47.696;9.140;2023-05-13T07:13:16;3.50;;;3.20;;
60847;SDS011;46681;47.696;9.140;2023-05-13T07:15:54;7.23;;;4.13;;
60847;SDS011;46681;47.696;9.140;2023-05-13T07:18:24;6.27;;;3.23;;
60847;SDS011;46681;47.696;9.140;2023-05-13T07:20:53;5.40;;;2.77;;
60847;SDS011;46681;47.696;9.140;2023-05-13T07:23:23;3.97;;;3.57;;
60847;SDS011;46681;47.696;9.140;2023-05-13T07:25:50;3.20;;;3.00;;
60847;SDS011;46681;47.696;9.140;2023-05-13T07:28:21;3.13;;;2.93;;
60847;SDS011;46681;47.696;9.140;2023-05-13T07:30:46;3.70;;;3.00;;
60847;SDS011;46681;47.696;9.140;2023-05-13T07:33:22;2.63;;;2.40;;
60847;SDS011;46681;47.696;9.140;2023-05-13T07:35:57;2.83;;;2.60;;
60847;SDS011;46681;47.696;9.140;2023-05-13T07:39:03;5.73;;;2.90;;
60847;SDS011;46681;47.696;9.140;2023-05-13T07:41:36;7.00;;;2.80;;
60847;SDS011;46681;47.696;9.140;2023-05-13T07:44:07;3.53;;;2.97;;
60847;SDS011;46681;47.696;9.140;2023-05-13T07:46:36;4.80;;;2.80;;
60847;SDS011;46681;47.696;9.140;2023-05-13T07:49:03;2.93;;;2.73;;
60847;SDS011;46681;47.696;9.140;2023-05-13T07:51:37;3.80;;;3.07;;
60847;SDS011;46681;47.696;9.140;2023-05-13T07:54:09;4.10;;;3.40;;
60847;SDS011;46681;47.696;9.140;2023-05-13T07:56:35;4.43;;;3.27;;
60847;SDS011;46681;47.696;9.140;2023-05-13T07:59:03;3.10;;;2.87;;
60847;SDS011;46681;47.696;9.140;2023-05-13T08:01:41;4.20;;;3.30;;
60847;SDS011;46681;47.696;9.140;2023-05-13T08:04:16;4.53;;;2.87;;
60847;SDS011;46681;47.696;9.140;2023-05-13T08:06:51;2.53;;;2.33;;
60847;SDS011;46681;47.696;9.140;2023-05-13T08:09:31;6.97;;;2.87;;
60847;SDS011;46681;47.696;9.140;2023-05-13T08:12:07;4.93;;;3.03;;
60847;SDS011;46681;47.696;9.140;2023-05-13T08:14:34;6.20;;;2.90;;
60847;SDS011;46681;47.696;9.140;2023-05-13T08:17:06;5.87;;;2.83;;
60847;SDS011;46681;47.696;9.140;2023-05-13T08:19:32;5.33;;;2.90;;
60847;SDS011;46681;47.696;9.140;2023-05-13T08:22:00;4.77;;;2.80;;
60847;SDS011;46681;47.696;9.140;2023-05-13T08:24:25;3.27;;;2.97;;
60847;SDS011;46681;47.696;9.140;2023-05-13T08:26:55;4.60;;;3.20;;
60847;SDS011;46681;47.696;9.140;2023-05-13T08:29:32;3.93;;;3.07;;
60847;SDS011;46681;47.696;9.140;2023-05-13T08:31:59;15.80;;;3.63;;
60847;SDS011;46681;47.696;9.140;2023-05-13T08:34:36;9.27;;;3.83;;
60847;SDS011;46681;47.696;9.140;2023-05-13T08:37:12;10.50;;;4.10;;
60847;SDS011;46681;47.696;9.140;2023-05-13T08:39:47;15.63;;;3.40;;
60847;SDS011;46681;47.696;9.140;2023-05-13T08:42:27;8.80;;;3.20;;
60847;SDS011;46681;47.696;9.140;2023-05-13T08:45:06;5.00;;;3.43;;
60847;SDS011;46681;47.696;9.140;2023-05-13T08:47:50;5.57;;;3.10;;
60847;SDS011;46681;47.696;9.140;2023-05-13T08:50:30;4.53;;;3.20;;
60847;SDS011;46681;47.696;9.140;2023-05-13T08:52:59;3.47;;;3.23;;
60847;SDS011;46681;47.696;9.140;2023-05-13T08:55:28;4.73;;;3.03;;
60847;SDS011;46681;47.696;9.140;2023-05-13T08:58:00;4.63;;;3.27;;
60847;SDS011;46681;47.696;9.140;2023-05-13T09:00:26;3.83;;;3.40;;
60847;SDS011;46681;47.696;9.140;2023-05-13T09:03:10;5.37;;;3.30;;
60847;SDS011;46681;47.696;9.140;2023-05-13T09:05:37;3.67;;;3.40;;
60847;SDS011;46681;47.696;9.140;2023-05-13T09:08:22;3.40;;;3.10;;
60847;SDS011;46681;47.696;9.140;2023-05-13T09:11:09;11.00;;;3.13;;
60847;SDS011;46681;47.696;9.140;2023-05-13T09:14:13;3.87;;;2.90;;
60847;SDS011;46681;47.696;9.140;2023-05-13T09:16:45;5.67;;;2.80;;
60847;SDS011;46681;47.696;9.140;2023-05-13T09:19:14;3.40;;;3.10;;
60847;SDS011;46681;47.696;9.140;2023-05-13T09:28:09;5.43;;;3.17;;
60847;SDS011;46681;47.696;9.140;2023-05-13T09:30:54;6.17;;;3.17;;
60847;SDS011;46681;47.696;9.140;2023-05-13T09:33:58;5.33;;;3.23;;
60847;SDS011;46681;47.696;9.140;2023-05-13T09:36:32;10.07;;;3.30;;
60847;SDS011;46681;47.696;9.140;2023-05-13T09:39:23;9.80;;;2.90;;
60847;SDS011;46681;47.696;9.140;2023-05-13T09:48:51;6.87;;;3.10;;
60847;SDS011;46681;47.696;9.140;2023-05-13T09:51:34;3.23;;;2.93;;
60847;SDS011;46681;47.696;9.140;2023-05-13T09:54:07;4.27;;;2.60;;
60847;SDS011;46681;47.696;9.140;2023-05-13T09:56:45;9.60;;;2.80;;
60847;SDS011;46681;47.696;9.140;2023-05-13T10:02:22;8.03;;;2.77;;
60847;SDS011;46681;47.696;9.140;2023-05-13T10:04:53;3.27;;;2.60;;
60847;SDS011;46681;47.696;9.140;2023-05-13T10:07:54;7.50;;;2.97;;
60847;SDS011;46681;47.696;9.140;2023-05-13T10:10:57;7.13;;;3.30;;
60847;SDS011;46681;47.696;9.140;2023-05-13T10:14:08;4.40;;;3.00;;
60847;SDS011;46681;47.696;9.140;2023-05-13T10:17:06;3.07;;;2.87;;
60847;SDS011;46681;47.696;9.140;2023-05-13T10:19:48;5.03;;;3.20;;
60847;SDS011;46681;47.696;9.140;2023-05-13T10:22:43;7.33;;;3.50;;
60847;SDS011;46681;47.696;9.140;2023-05-13T10:25:38;6.33;;;3.20;;
60847;SDS011;46681;47.696;9.140;2023-05-13T10:28:28;5.03;;;3.10;;
60847;SDS011;46681;47.696;9.140;2023-05-13T10:30:56;3.97;;;3.30;;
60847;SDS011;46681;47.696;9.140;2023-05-13T10:33:35;5.00;;;3.03;;
60847;SDS011;46681;47.696;9.140;2023-05-13T10:36:26;6.30;;;3.10;;
60847;SDS011;46681;47.696;9.140;2023-05-13T10:48:16;12.30;;;4.73;;
60847;SDS011;46681;47.696;9.140;2023-05-13T10:51:02;5.13;;;3.93;;
60847;SDS011;46681;47.696;9.140;2023-05-13T10:54:07;5.37;;;3.50;;
60847;SDS011;46681;47.696;9.140;2023-05-13T10:57:28;7.43;;;4.10;;
60847;SDS011;46681;47.696;9.140;2023-05-13T11:00:14;9.93;;;4.40;;
60847;SDS011;46681;47.696;9.140;2023-05-13T11:03:14;8.93;;;4.73;;
60847;SDS011;46681;47.696;9.140;2023-05-13T11:09:31;8.73;;;3.60;;
60847;SDS011;46681;47.696;9.140;2023-05-13T11:12:32;8.77;;;4.60;;
60847;SDS011;46681;47.696;9.140;2023-05-13T11:24:38;4.00;;;3.50;;
60847;SDS011;46681;47.696;9.140;2023-05-13T11:36:46;6.47;;;4.30;;
60847;SDS011;46681;47.696;9.140;2023-05-13T11:42:41;4.83;;;3.70;;
60847;SDS011;46681;47.696;9.140;2023-05-13T11:45:21;4.30;;;3.90;;
60847;SDS011;46681;47.696;9.140;2023-05-13T11:51:16;6.40;;;3.67;;
60847;SDS011;46681;47.696;9.140;2023-05-13T11:53:50;7.20;;;4.00;;
60847;SDS011;46681;47.696;9.140;2023-05-13T11:56:49;5.70;;;4.03;;
60847;SDS011;46681;47.696;9.140;2023-05-13T11:59:22;6.43;;;4.30;;
60847;SDS011;46681;47.696;9.140;2023-05-13T12:01:59;5.87;;;4.27;;
60847;SDS011;46681;47.696;9.140;2023-05-13T12:05:10;5.60;;;4.10;;
60847;SDS011;46681;47.696;9.140;2023-05-13T12:08:08;4.40;;;4.00;;
60847;SDS011;46681;47.696;9.140;2023-05-13T12:11:02;9.37;;;4.40;;
60847;SDS011;46681;47.696;9.140;2023-05-13T12:14:06;7.33;;;4.00;;
60847;SDS011;46681;47.696;9.140;2023-05-13T12:16:41;10.67;;;4.67;;
60847;SDS011;46681;47.696;9.140;2023-05-13T12:19:38;4.43;;;3.40;;
60847;SDS011;46681;47.696;9.140;2023-05-13T12:28:54;7.90;;;4.20;;
60847;SDS011;46681;47.696;9.140;2023-05-13T12:34:48;5.87;;;4.27;;
60847;SDS011;46681;47.696;9.140;2023-05-13T12:37:16;9.50;;;5.63;;
60847;SDS011;46681;47.696;9.140;2023-05-13T12:40:22;13.57;;;6.87;;
60847;SDS011;46681;47.696;9.140;2023-05-13T12:43:31;7.43;;;5.17;;
60847;SDS011;46681;47.696;9.140;2023-05-13T12:46:28;12.40;;;6.60;;
60847;SDS011;46681;47.696;9.140;2023-05-13T12:55:49;29.43;;;9.50;;
60847;SDS011;46681;47.696;9.140;2023-05-13T12:58:53;25.30;;;10.53;;
60847;SDS011;46681;47.696;9.140;2023-05-13T13:05:12;21.83;;;9.60;;
60847;SDS011;46681;47.696;9.140;2023-05-13T13:07:38;27.87;;;11.07;;
60847;SDS011;46681;47.696;9.140;2023-05-13T13:13:41;29.80;;;11.40;;
60847;SDS011;46681;47.696;9.140;2023-05-13T13:19:22;29.07;;;10.23;;
60847;SDS011;46681;47.696;9.140;2023-05-13T13:21:53;20.87;;;10.00;;
60847;SDS011;46681;47.696;9.140;2023-05-13T13:25:04;18.07;;;9.27;;
60847;SDS011;46681;47.696;9.140;2023-05-13T13:28:07;21.80;;;9.23;;
60847;SDS011;46681;47.696;9.140;2023-05-13T13:30:40;15.60;;;9.30;;
60847;SDS011;46681;47.696;9.140;2023-05-13T13:33:46;14.80;;;8.30;;
60847;SDS011;46681;47.696;9.140;2023-05-13T13:39:28;14.33;;;7.97;;
60847;SDS011;46681;47.696;9.140;2023-05-13T13:42:32;13.50;;;8.23;;
60847;SDS011;46681;47.696;9.140;2023-05-13T13:48:02;15.47;;;9.10;;
60847;SDS011;46681;47.696;9.140;2023-05-13T13:50:46;13.47;;;7.67;;
60847;SDS011;46681;47.696;9.140;2023-05-13T13:53:15;18.00;;;10.10;;
60847;SDS011;46681;47.696;9.140;2023-05-13T13:56:04;18.77;;;9.60;;
60847;SDS011;46681;47.696;9.140;2023-05-13T14:01:43;14.07;;;8.20;;
60847;SDS011;46681;47.696;9.140;2023-05-13T14:04:17;14.80;;;8.77;;
60847;SDS011;46681;47.696;9.140;2023-05-13T14:07:18;13.70;;;8.47;;
60847;SDS011;46681;47.696;9.140;2023-05-13T14:10:18;13.17;;;8.13;;
60847;SDS011;46681;47.696;9.140;2023-05-13T14:12:57;13.50;;;8.13;;
60847;SDS011;46681;47.696;9.140;2023-05-13T14:15:32;15.40;;;8.60;;
60847;SDS011;46681;47.696;9.140;2023-05-13T14:18:05;13.03;;;8.33;;
60847;SDS011;46681;47.696;9.140;2023-05-13T14:23:37;10.90;;;7.17;;
60847;SDS011;46681;47.696;9.140;2023-05-13T14:26:38;17.33;;;9.03;;
60847;SDS011;46681;47.696;9.140;2023-05-13T14:32:08;16.07;;;8.57;;
60847;SDS011;46681;47.696;9.140;2023-05-13T14:34:36;17.67;;;8.40;;
60847;SDS011;46681;47.696;9.140;2023-05-13T14:37:03;12.43;;;8.27;;
60847;SDS011;46681;47.696;9.140;2023-05-13T14:39:39;15.80;;;8.30;;
60847;SDS011;46681;47.696;9.140;2023-05-13T14:42:24;15.30;;;8.83;;
60847;SDS011;46681;47.696;9.140;2023-05-13T14:45:13;14.53;;;7.73;;
60847;SDS011;46681;47.696;9.140;2023-05-13T14:47:47;14.27;;;8.73;;
60847;SDS011;46681;47.696;9.140;2023-05-13T14:53:27;15.90;;;8.57;;
60847;SDS011;46681;47.696;9.140;2023-05-13T14:56:05;14.10;;;8.17;;
60847;SDS011;46681;47.696;9.140;2023-05-13T14:58:51;13.83;;;8.23;;
60847;SDS011;46681;47.696;9.140;2023-05-13T15:01:31;12.33;;;7.87;;
60847;SDS011;46681;47.696;9.140;2023-05-13T15:04:19;13.63;;;7.80;;
60847;SDS011;46681;47.696;9.140;2023-05-13T15:06:49;12.87;;;7.57;;
60847;SDS011;46681;47.696;9.140;2023-05-13T15:09:30;11.60;;;7.83;;
60847;SDS011;46681;47.696;9.140;2023-05-13T15:11:58;12.87;;;7.93;;
60847;SDS011;46681;47.696;9.140;2023-05-13T15:17:40;12.90;;;7.40;;
60847;SDS011;46681;47.696;9.140;2023-05-13T15:20:09;14.60;;;7.50;;
60847;SDS011;46681;47.696;9.140;2023-05-13T15:23:06;12.37;;;7.67;;
60847;SDS011;46681;47.696;9.140;2023-05-13T15:25:36;12.43;;;7.37;;
60847;SDS011;46681;47.696;9.140;2023-05-13T15:28:14;10.80;;;7.80;;
60847;SDS011;46681;47.696;9.140;2023-05-13T15:30:41;11.00;;;7.57;;
60847;SDS011;46681;47.696;9.140;2023-05-13T15:33:10;11.80;;;7.87;;
60847;SDS011;46681;47.696;9.140;2023-05-13T15:35:43;10.37;;;7.50;;
60847;SDS011;46681;47.696;9.140;2023-05-13T15:38:11;9.40;;;7.47;;
60847;SDS011;46681;47.696;9.140;2023-05-13T15:40:37;8.50;;;7.17;;
60847;SDS011;46681;47.696;9.140;2023-05-13T15:43:07;7.93;;;6.90;;
60847;SDS011;46681;47.696;9.140;2023-05-13T15:45:41;10.87;;;7.67;;
60847;SDS011;46681;47.696;9.140;2023-05-13T15:48:14;12.07;;;7.43;;
60847;SDS011;46681;47.696;9.140;2023-05-13T15:50:40;10.40;;;7.30;;
60847;SDS011;46681;47.696;9.140;2023-05-13T15:53:06;12.57;;;7.50;;
60847;SDS011;46681;47.696;9.140;2023-05-13T15:55:52;10.80;;;7.17;;
60847;SDS011;46681;47.696;9.140;2023-05-13T15:58:36;10.40;;;7.30;;
60847;SDS011;46681;47.696;9.140;2023-05-13T16:01:13;11.17;;;6.87;;
60847;SDS011;46681;47.696;9.140;2023-05-13T16:03:54;11.50;;;7.50;;
60847;SDS011;46681;47.696;9.140;2023-05-13T16:06:33;9.43;;;6.97;;
60847;SDS011;46681;47.696;9.140;2023-05-13T16:09:13;10.20;;;7.10;;
60847;SDS011;46681;47.696;9.140;2023-05-13T16:11:40;9.53;;;7.10;;
60847;SDS011;46681;47.696;9.140;2023-05-13T16:14:06;10.00;;;7.23;;
60847;SDS011;46681;47.696;9.140;2023-05-13T16:16:34;7.87;;;6.67;;
60847;SDS011;46681;47.696;9.140;2023-05-13T16:19:08;9.13;;;7.03;;
60847;SDS011;46681;47.696;9.140;2023-05-13T16:21:40;8.53;;;7.00;;
60847;SDS011;46681;47.696;9.140;2023-05-13T16:24:06;7.57;;;6.60;;
60847;SDS011;46681;47.696;9.140;2023-05-13T16:26:33;10.30;;;7.27;;
60847;SDS011;46681;47.696;9.140;2023-05-13T16:29:15;7.83;;;6.70;;
60847;SDS011;46681;47.696;9.140;2023-05-13T16:31:53;9.57;;;6.97;;
60847;SDS011;46681;47.696;9.140;2023-05-13T16:34:19;7.90;;;6.13;;
60847;SDS011;46681;47.696;9.140;2023-05-13T16:36:44;8.13;;;6.43;;
60847;SDS011;46681;47.696;9.140;2023-05-13T16:39:14;7.03;;;6.10;;
60847;SDS011;46681;47.696;9.140;2023-05-13T16:42:15;7.00;;;6.07;;
60847;SDS011;46681;47.696;9.140;2023-05-13T16:44:42;6.63;;;5.90;;
60847;SDS011;46681;47.696;9.140;2023-05-13T16:47:13;7.03;;;5.97;;
60847;SDS011;46681;47.696;9.140;2023-05-13T16:49:41;7.33;;;5.20;;
60847;SDS011;46681;47.696;9.140;2023-05-13T16:52:13;8.73;;;6.43;;
60847;SDS011;46681;47.696;9.140;2023-05-13T16:54:39;8.70;;;6.10;;
60847;SDS011;46681;47.696;9.140;2023-05-13T16:57:19;7.37;;;6.20;;
60847;SDS011;46681;47.696;9.140;2023-05-13T16:59:48;6.77;;;6.00;;
60847;SDS011;46681;47.696;9.140;2023-05-13T17:02:34;6.37;;;5.60;;
60847;SDS011;46681;47.696;9.140;2023-05-13T17:05:07;6.77;;;6.00;;
60847;SDS011;46681;47.696;9.140;2023-05-13T17:07:42;7.57;;;5.97;;